York, NE

8:26 AM CST on February 12, 2016 (GMT -0600)
York Municipal

Weather History for KJYR - February, 2014

Change the Weather History Date:

Friday, February 28, 2014

  Actual Average Record
Temperature  
Mean Temperature 28 °F -  
Max Temperature 41 °F 46 °F 78 °F (1972)
Min Temperature 15 °F 24 °F -17 °F (1962)
Degree Days  
Heating Degree Days 37    
Moisture  
Dew Point 11 °F    
Average Humidity 60    
Maximum Humidity 93    
Minimum Humidity 36    
Precipitation  
Precipitation 0.00 in - - ()
Sea Level Pressure  
Sea Level Pressure 29.84 in    
Wind  
Wind Speed 13 mph (NE)    
Max Wind Speed 29 mph    
Max Gust Speed 36 mph    
Visibility 9 miles    
Events Rain , Snow    
Averages and records for this station are not official NWS values.
T = Trace of Precipitation, MM = Missing Value Source: NWS Daily Summary

Daily Weather History Graph

Daily Weather History Graph

Search for Another Location

Airport or City:

Trip Planner

Search our weather history database for the weather conditions in past years. The results will help you decide how hot, cold, wet, or windy it might be!

Date:

Astronomy

Feb. 28, 2014 Rise Set
Actual Time 7:06 AM CST 6:20 PM CST
Civil Twilight 6:38 AM CST 6:48 PM CST
Nautical Twilight 6:06 AM CST 7:19 PM CST
Astronomical Twilight 5:34 AM CST 7:51 PM CST
Moon 6:21 AM CST (2/28) 5:59 PM CST (2/28)
Length of Visible Light 12h 09m
Length of Day
11h 14m
Waning Crescent, 1% of the Moon is Illuminated
Feb 28
Waning Crescent
Mar 1
New
Mar 8
First Quarter
Mar 16
Full
Mar 23
Last Quarter

Hourly Weather History & Observations

Time (CST) Temp. Windchill Dew Point Humidity Pressure Visibility Wind Dir Wind Speed Gust Speed Precip Events Conditions
12:15 AM 17.6 °F 2.7 °F -0.4 °F 45% 29.77 in 10.0 mi SE 16.1 mph - N/A   Mostly Cloudy
12:35 AM 17.6 °F 4.3 °F -0.4 °F 45% 29.77 in 10.0 mi SE 12.7 mph 19.6 mph N/A   Overcast
12:55 AM 17.6 °F 5.0 °F -0.4 °F 45% 29.76 in 10.0 mi SE 11.5 mph - N/A   Scattered Clouds
1:15 AM 17.6 °F 5.0 °F -0.4 °F 45% 29.76 in 10.0 mi SE 11.5 mph 17.3 mph N/A   Clear
1:35 AM 17.6 °F 4.3 °F -0.4 °F 45% 29.76 in 10.0 mi SE 12.7 mph - N/A   Partly Cloudy
1:55 AM 17.6 °F 3.2 °F 1.4 °F 49% 29.75 in 10.0 mi SE 15.0 mph - N/A   Clear
2:15 AM 15.8 °F 0.9 °F 1.4 °F 53% 29.73 in 10.0 mi SSE 15.0 mph - N/A   Clear
2:35 AM 15.8 °F 2.1 °F 1.4 °F 53% 29.73 in 10.0 mi SE 12.7 mph - N/A   Clear
2:55 AM 15.8 °F 2.7 °F 1.4 °F 53% 29.72 in 10.0 mi SE 11.5 mph - N/A   Clear
3:15 AM 15.8 °F 3.4 °F 1.4 °F 53% 29.72 in 10.0 mi SE 10.4 mph - N/A   Clear
3:35 AM 15.8 °F 4.2 °F 3.2 °F 58% 29.71 in 10.0 mi ESE 9.2 mph - N/A   Clear
3:55 AM 15.8 °F 4.2 °F 3.2 °F 58% 29.70 in 10.0 mi SE 9.2 mph - N/A   Clear
4:15 AM 15.8 °F 5.1 °F 3.2 °F 58% 29.70 in 10.0 mi SE 8.1 mph - N/A   Clear
4:35 AM 15.8 °F 4.2 °F 3.2 °F 58% 29.70 in 10.0 mi SE 9.2 mph - N/A   Clear
4:55 AM 15.8 °F 5.1 °F 5.0 °F 62% 29.69 in 10.0 mi SE 8.1 mph - N/A   Clear
5:15 AM 15.8 °F 6.1 °F 5.0 °F 62% 29.69 in 10.0 mi SE 6.9 mph - N/A   Partly Cloudy
5:35 AM 15.8 °F 5.1 °F 5.0 °F 62% 29.69 in 10.0 mi SE 8.1 mph - N/A   Partly Cloudy
5:55 AM 15.8 °F 6.1 °F 5.0 °F 62% 29.69 in 10.0 mi SE 6.9 mph - N/A   Clear
6:15 AM 15.8 °F 5.1 °F 5.0 °F 62% 29.69 in 10.0 mi SE 8.1 mph - N/A   Clear
6:35 AM 15.8 °F 7.2 °F 5.0 °F 62% 29.70 in 10.0 mi SE 5.8 mph - N/A   Partly Cloudy
6:55 AM 17.6 °F 7.3 °F 5.0 °F 58% 29.70 in 10.0 mi SE 8.1 mph - N/A   Mostly Cloudy
7:15 AM 17.6 °F 7.3 °F 5.0 °F 58% 29.70 in 10.0 mi SSE 8.1 mph - N/A   Overcast
7:35 AM 17.6 °F 9.3 °F 6.8 °F 63% 29.71 in 10.0 mi SSE 5.8 mph - N/A   Overcast
7:55 AM 19.4 °F 8.6 °F 6.8 °F 58% 29.71 in 10.0 mi SSE 9.2 mph - N/A   Overcast
8:15 AM 21.2 °F 10.1 °F 6.8 °F 54% 29.72 in 10.0 mi SSE 10.4 mph - N/A   Scattered Clouds
8:35 AM 24.8 °F 14.0 °F 6.8 °F 46% 29.72 in 10.0 mi South 11.5 mph - N/A   Partly Cloudy
8:55 AM 24.8 °F 12.9 °F 8.6 °F 50% 29.72 in 10.0 mi SSE 13.8 mph 18.4 mph N/A   Scattered Clouds
9:15 AM 26.6 °F 15.2 °F 8.6 °F 47% 29.72 in 10.0 mi South 13.8 mph - N/A   Scattered Clouds
9:35 AM 28.4 °F 17.5 °F 10.4 °F 47% 29.72 in 10.0 mi South 13.8 mph - N/A   Scattered Clouds
9:55 AM 30.2 °F 21.3 °F 10.4 °F 44% 29.74 in 10.0 mi South 10.4 mph - N/A   Scattered Clouds
10:15 AM 32.0 °F 24.2 °F 12.2 °F 44% 29.76 in 10.0 mi SSW 9.2 mph - N/A   Scattered Clouds
10:35 AM 32.0 °F 25.6 °F 14.0 °F 48% 29.77 in 10.0 mi WSW 6.9 mph - N/A   Mostly Cloudy
10:55 AM 33.8 °F 27.7 °F 14.0 °F 44% 29.77 in 10.0 mi WSW 6.9 mph - N/A   Mostly Cloudy
11:15 AM 35.6 °F 29.9 °F 15.8 °F 44% 29.77 in 10.0 mi West 6.9 mph - N/A   Mostly Cloudy
11:35 AM 39.2 °F 34.2 °F 15.8 °F 39% 29.78 in 10.0 mi WSW 6.9 mph - N/A   Partly Cloudy
11:55 AM 41.0 °F 34.7 °F 15.8 °F 36% 29.78 in 10.0 mi West 10.4 mph - N/A   Scattered Clouds
12:15 PM 41.0 °F 34.7 °F 15.8 °F 36% 29.78 in 10.0 mi WNW 10.4 mph - N/A   Partly Cloudy
12:35 PM 39.2 °F 30.5 °F 14.0 °F 36% 29.79 in 10.0 mi NNW 16.1 mph - N/A   Clear
12:55 PM 37.4 °F 28.9 °F 14.0 °F 38% 29.79 in 10.0 mi NW 13.8 mph - N/A   Clear
1:15 PM 37.4 °F 28.2 °F 15.8 °F 41% 29.80 in 10.0 mi WNW 16.1 mph 20.7 mph N/A   Clear
1:35 PM 35.6 °F 27.1 °F 15.8 °F 44% 29.80 in 10.0 mi NNW 12.7 mph - N/A   Clear
1:55 PM 37.4 °F 29.3 °F 15.8 °F 41% 29.81 in 10.0 mi NNW 12.7 mph - N/A   Clear
2:15 PM 37.4 °F 29.8 °F 15.8 °F 41% 29.81 in 10.0 mi NNW 11.5 mph 18.4 mph N/A   Clear
2:35 PM 39.2 °F 29.8 °F 17.6 °F 42% 29.82 in 10.0 mi North 18.4 mph 24.2 mph N/A   Partly Cloudy
2:55 PM 37.4 °F 28.5 °F 17.6 °F 45% 29.83 in 10.0 mi North 15.0 mph 25.3 mph N/A   Scattered Clouds
3:15 PM 35.6 °F 24.2 °F 17.6 °F 48% 29.85 in 10.0 mi North 21.9 mph 31.1 mph N/A   Mostly Cloudy
3:35 PM 35.6 °F 25.9 °F 21.2 °F 56% 29.87 in 10.0 mi NNW 16.1 mph 20.7 mph N/A Rain Light Rain
3:55 PM 32.0 °F 20.1 °F 24.8 °F 75% 29.88 in 6.0 mi North 19.6 mph 26.5 mph N/A Rain Light Rain
4:15 PM 30.2 °F 18.5 °F 24.8 °F 80% 29.90 in 9.0 mi North 17.3 mph 27.6 mph N/A Rain Light Freezing Rain
4:35 PM 26.6 °F 12.4 °F 24.8 °F 93% 29.92 in 1.2 mi North 21.9 mph 29.9 mph N/A Snow Light Snow
4:55 PM 24.8 °F 10.0 °F 23.0 °F 93% 29.94 in 1.0 mi North 21.9 mph 32.2 mph N/A Snow Light Snow
5:15 PM 24.8 °F 10.3 °F 21.2 °F 86% 29.95 in 2.0 mi North 20.7 mph 27.6 mph N/A Snow Light Snow
5:35 PM 24.8 °F 11.5 °F 23.0 °F 93% 29.95 in 1.0 mi NNE 17.3 mph 21.9 mph N/A Snow Light Snow
5:55 PM 23.0 °F 7.2 °F 21.2 °F 93% 29.94 in 2.0 mi North 23.0 mph 32.2 mph N/A Snow Light Snow
6:15 PM 23.0 °F 8.0 °F 19.4 °F 86% 29.96 in 5.0 mi NNE 20.7 mph 28.8 mph N/A Snow Light Snow
6:35 PM 23.0 °F 8.7 °F 19.4 °F 86% 29.98 in 10.0 mi North 18.4 mph 27.6 mph N/A Snow Light Snow
6:55 PM 21.2 °F 6.8 °F 17.6 °F 86% 29.99 in 10.0 mi North 17.3 mph 24.2 mph N/A   Mostly Cloudy
7:15 PM 23.0 °F 10.1 °F 17.6 °F 80% 30.01 in 10.0 mi North 15.0 mph - N/A   Overcast
7:35 PM 23.0 °F 7.6 °F 17.6 °F 80% 30.02 in 10.0 mi North 21.9 mph 26.5 mph N/A   Overcast
7:55 PM 23.0 °F 8.3 °F 17.6 °F 80% 30.03 in 10.0 mi North 19.6 mph 28.8 mph N/A   Overcast
8:15 PM 21.2 °F 6.4 °F 15.8 °F 80% 30.04 in 10.0 mi North 18.4 mph 28.8 mph N/A   Overcast
8:35 PM 19.4 °F 5.0 °F 15.8 °F 86% 30.05 in 10.0 mi North 16.1 mph 28.8 mph N/A   Overcast
8:55 PM 19.4 °F 0.8 °F 14.0 °F 80% 30.06 in 10.0 mi North 28.8 mph 32.2 mph N/A   Overcast
9:15 PM 19.4 °F 2.5 °F 10.4 °F 68% 30.08 in 10.0 mi North 23.0 mph 35.7 mph N/A   Overcast
9:35 PM 19.4 °F 2.8 °F 12.2 °F 74% 30.08 in 10.0 mi North 21.9 mph 25.3 mph N/A   Overcast
9:55 PM 17.6 °F 0.5 °F 12.2 °F 79% 30.09 in 10.0 mi North 21.9 mph 29.9 mph N/A   Overcast
10:15 PM 17.6 °F -0.6 °F 10.4 °F 73% 30.10 in 10.0 mi North 25.3 mph 29.9 mph N/A   Overcast
10:35 PM 17.6 °F 0.5 °F 10.4 °F 73% 30.11 in 10.0 mi North 21.9 mph 32.2 mph N/A   Overcast
10:55 PM 17.6 °F 0.9 °F 8.6 °F 68% 30.13 in 10.0 mi North 20.7 mph 27.6 mph N/A   Overcast
11:15 PM 17.6 °F 0.1 °F 8.6 °F 68% 30.14 in 10.0 mi North 23.0 mph 31.1 mph N/A   Overcast
11:35 PM 15.8 °F -0.6 °F 8.6 °F 73% 30.13 in 10.0 mi North 18.4 mph 29.9 mph N/A   Overcast
11:55 PM 15.8 °F 2.1 °F 8.6 °F 73% 30.15 in 10.0 mi North 12.7 mph 24.2 mph N/A   Overcast